Time,TemperatureF,DewpointF,PressureIn,WindDirection,WindDirectionDegrees,WindSpeedMPH,WindSpeedGustMPH,Humidity,HourlyPrecipIn,Conditions,Clouds,dailyrainin,SoftwareType,DateUTC
2013-03-11 00:02:00,36.0,34.0,-100.00,NW,315,15.0,22.0,91,-99.99,,,-99.99,,2013-03-11 04:02:00,
2013-03-11 00:12:00,36.0,34.0,-100.00,NW,310,14.0,24.0,90,-99.99,,,-99.99,,2013-03-11 04:12:00,
2013-03-11 00:22:00,36.0,34.0,-100.00,NW,310,14.0,24.0,90,-99.99,,,-99.99,,2013-03-11 04:22:00,
2013-03-11 00:32:00,36.0,33.0,-100.00,NW,310,12.0,20.0,90,-99.99,,,-99.99,,2013-03-11 04:32:00,
2013-03-11 00:42:00,36.0,33.0,-100.00,NW,310,17.0,21.0,89,-99.99,,,-99.99,,2013-03-11 04:42:00,
2013-03-11 00:52:00,36.0,33.0,-100.00,NW,310,17.0,21.0,89,-99.99,,,-99.99,,2013-03-11 04:52:00,
2013-03-11 01:03:00,36.0,33.0,-100.00,NW,315,10.0,19.0,90,-99.99,,,-99.99,,2013-03-11 05:03:00,
2013-03-11 01:12:00,35.0,32.0,-100.00,NW,315,17.0,23.0,90,-99.99,,,-99.99,,2013-03-11 05:12:00,
2013-03-11 01:22:00,35.0,32.0,-100.00,NW,315,17.0,23.0,90,-99.99,,,-99.99,,2013-03-11 05:22:00,
2013-03-11 01:32:00,35.0,32.0,-100.00,NW,310,14.0,22.0,89,-99.99,,,-99.99,,2013-03-11 05:32:00,
2013-03-11 01:42:00,34.0,32.0,-100.00,NW,310,9.0,19.0,90,-99.99,,,-99.99,,2013-03-11 05:42:00,
2013-03-11 01:52:00,34.0,32.0,-100.00,NW,310,9.0,19.0,90,-99.99,,,-99.99,,2013-03-11 05:52:00,
2013-03-11 02:02:00,34.0,31.0,-100.00,NW,310,10.0,16.0,88,-99.99,,,-99.99,,2013-03-11 06:02:00,
2013-03-11 02:12:00,34.0,31.0,-100.00,NW,315,11.0,24.0,87,-99.99,,,-99.99,,2013-03-11 06:12:00,
2013-03-11 02:22:00,34.0,31.0,-100.00,NW,315,11.0,24.0,87,-99.99,,,-99.99,,2013-03-11 06:22:00,
2013-03-11 02:32:00,33.0,30.0,-100.00,NW,310,11.0,23.0,88,-99.99,,,-99.99,,2013-03-11 06:32:00,
2013-03-11 02:42:00,33.0,30.0,-100.00,NW,310,15.0,19.0,88,-99.99,,,-99.99,,2013-03-11 06:42:00,
2013-03-11 02:52:00,33.0,30.0,-100.00,NW,310,15.0,19.0,88,-99.99,,,-99.99,,2013-03-11 06:52:00,
2013-03-11 03:02:00,33.0,30.0,-100.00,NW,315,15.0,20.0,89,-99.99,,,-99.99,,2013-03-11 07:02:00,
2013-03-11 03:12:00,33.0,30.0,-100.00,NW,315,9.0,21.0,89,-99.99,,,-99.99,,2013-03-11 07:12:00,
2013-03-11 03:22:00,33.0,30.0,-100.00,NW,315,9.0,21.0,89,-99.99,,,-99.99,,2013-03-11 07:22:00,
2013-03-11 03:30:00,32.0,29.0,-100.00,NW,315,9.0,23.0,87,-99.99,,,-99.99,,2013-03-11 07:30:00,
2013-03-11 03:32:00,33.0,29.0,-100.00,NW,310,9.0,17.0,87,-99.99,,,-99.99,,2013-03-11 07:32:00,
2013-03-11 03:42:00,33.0,29.0,-100.00,NW,310,12.0,19.0,88,-99.99,,,-99.99,,2013-03-11 07:42:00,
2013-03-11 03:52:00,33.0,29.0,-100.00,NW,310,12.0,19.0,88,-99.99,,,-99.99,,2013-03-11 07:52:00,
2013-03-11 04:02:00,32.0,29.0,-100.00,NW,315,11.0,19.0,87,-99.99,,,-99.99,,2013-03-11 08:02:00,
2013-03-11 04:12:00,32.0,29.0,-100.00,NW,315,9.0,23.0,87,-99.99,,,-99.99,,2013-03-11 08:12:00,
2013-03-11 04:22:00,32.0,29.0,-100.00,NW,315,9.0,23.0,87,-99.99,,,-99.99,,2013-03-11 08:22:00,
2013-03-11 04:42:00,32.0,29.0,-100.00,NW,310,13.0,20.0,90,-99.99,,,-99.99,,2013-03-11 08:42:00,
2013-03-11 04:52:00,32.0,29.0,-100.00,NW,310,13.0,20.0,90,-99.99,,,-99.99,,2013-03-11 08:52:00,
2013-03-11 05:02:00,32.0,29.0,-100.00,NW,310,13.0,17.0,90,-99.99,,,-99.99,,2013-03-11 09:02:00,
2013-03-11 05:12:00,31.0,29.0,-100.00,NW,310,9.0,16.0,89,-99.99,,,-99.99,,2013-03-11 09:12:00,
2013-03-11 05:23:00,31.0,29.0,-100.00,NW,310,9.0,16.0,89,-99.99,,,-99.99,,2013-03-11 09:23:00,
2013-03-11 05:32:00,31.0,28.0,-100.00,NW,310,11.0,19.0,87,-99.99,,,-99.99,,2013-03-11 09:32:00,
2013-03-11 05:42:00,31.0,28.0,-100.00,NW,310,9.0,16.0,89,-99.99,,,-99.99,,2013-03-11 09:42:00,
2013-03-11 05:52:00,31.0,28.0,-100.00,NW,310,9.0,16.0,89,-99.99,,,-99.99,,2013-03-11 09:52:00,
2013-03-11 06:02:00,31.0,27.0,-100.00,NW,310,18.0,24.0,87,-99.99,,,-99.99,,2013-03-11 10:02:00,
2013-03-11 06:12:00,30.0,27.0,-100.00,NW,310,12.0,22.0,88,-99.99,,,-99.99,,2013-03-11 10:12:00,
2013-03-11 06:22:00,30.0,27.0,-100.00,NW,310,12.0,22.0,88,-99.99,,,-99.99,,2013-03-11 10:22:00,
2013-03-11 06:32:00,30.0,28.0,-100.00,NW,310,10.0,19.0,89,-99.99,,,-99.99,,2013-03-11 10:32:00,
2013-03-11 06:42:00,30.0,28.0,-100.00,NW,310,10.0,19.0,90,-99.99,,,-99.99,,2013-03-11 10:42:00,
2013-03-11 06:52:00,30.0,28.0,-100.00,NW,310,10.0,19.0,90,-99.99,,,-99.99,,2013-03-11 10:52:00,
2013-03-11 07:02:00,30.0,27.0,-100.00,NW,310,10.0,18.0,89,-99.99,,,-99.99,,2013-03-11 11:02:00,
2013-03-11 07:12:00,30.0,27.0,-100.00,NW,310,8.0,15.0,90,-99.99,,,-99.99,,2013-03-11 11:12:00,
2013-03-11 07:22:00,30.0,27.0,-100.00,NW,310,8.0,15.0,90,-99.99,,,-99.99,,2013-03-11 11:22:00,
2013-03-11 07:32:00,30.0,27.0,-100.00,NW,310,15.0,22.0,89,-99.99,,,-99.99,,2013-03-11 11:32:00,
2013-03-11 07:42:00,29.0,26.0,-100.00,NW,310,14.0,25.0,88,-99.99,,,-99.99,,2013-03-11 11:42:00,
2013-03-11 07:52:00,29.0,26.0,-100.00,NW,310,14.0,25.0,88,-99.99,,,-99.99,,2013-03-11 11:52:00,
2013-03-11 08:02:00,29.0,26.0,-100.00,NW,310,11.0,16.0,88,-99.99,,,-99.99,,2013-03-11 12:02:00,
2013-03-11 08:12:00,29.0,27.0,-100.00,NW,310,7.0,17.0,89,-99.99,,,-99.99,,2013-03-11 12:12:00,
2013-03-11 08:22:00,29.0,27.0,-100.00,NW,310,7.0,17.0,89,-99.99,,,-99.99,,2013-03-11 12:22:00,
2013-03-11 08:32:00,29.0,26.0,-100.00,NW,310,9.0,20.0,86,-99.99,,,-99.99,,2013-03-11 12:32:00,
2013-03-11 08:43:00,29.0,26.0,-100.00,NW,315,8.0,15.0,87,-99.99,,,-99.99,,2013-03-11 12:43:00,
2013-03-11 08:52:00,29.0,26.0,-100.00,NW,315,8.0,15.0,87,-99.99,,,-99.99,,2013-03-11 12:52:00,
2013-03-11 09:02:00,29.0,25.0,-100.00,NW,310,15.0,24.0,86,-99.99,,,-99.99,,2013-03-11 13:02:00,
2013-03-11 09:12:00,29.0,25.0,-100.00,NW,310,11.0,21.0,86,-99.99,,,-99.99,,2013-03-11 13:12:00,
2013-03-11 09:22:00,29.0,25.0,-100.00,NW,310,11.0,21.0,86,-99.99,,,-99.99,,2013-03-11 13:22:00,
2013-03-11 09:32:00,29.0,25.0,-100.00,NW,310,9.0,24.0,86,-99.99,,,-99.99,,2013-03-11 13:32:00,
2013-03-11 09:42:00,29.0,25.0,-100.00,NW,310,14.0,22.0,87,-99.99,,,-99.99,,2013-03-11 13:42:00,
2013-03-11 09:52:00,29.0,25.0,-100.00,NW,310,14.0,22.0,87,-99.99,,,-99.99,,2013-03-11 13:52:00,
2013-03-11 10:02:00,29.0,25.0,-100.00,NW,310,13.0,22.0,87,-99.99,,,-99.99,,2013-03-11 14:02:00,
2013-03-11 10:12:00,29.0,25.0,-100.00,NW,310,12.0,21.0,87,-99.99,,,-99.99,,2013-03-11 14:12:00,
2013-03-11 10:22:00,29.0,25.0,-100.00,NW,310,12.0,21.0,87,-99.99,,,-99.99,,2013-03-11 14:22:00,
2013-03-11 10:33:00,29.0,25.0,-100.00,NW,310,16.0,26.0,84,-99.99,,,-99.99,,2013-03-11 14:33:00,
2013-03-11 10:42:00,29.0,25.0,-100.00,NW,315,15.0,23.0,84,-99.99,,,-99.99,,2013-03-11 14:42:00,
2013-03-11 10:52:00,29.0,25.0,-100.00,NW,315,15.0,23.0,84,-99.99,,,-99.99,,2013-03-11 14:52:00,
2013-03-11 11:00:00,29.0,25.0,-100.00,NW,310,14.0,22.0,84,-99.99,,,-99.99,,2013-03-11 15:00:00,
2013-03-11 11:02:00,29.0,25.0,-100.00,NW,310,11.0,24.0,84,-99.99,,,-99.99,,2013-03-11 15:02:00,
2013-03-11 11:12:00,29.0,24.0,-100.00,NW,310,15.0,23.0,83,-99.99,,,-99.99,,2013-03-11 15:12:00,
2013-03-11 11:22:00,29.0,24.0,-100.00,NW,310,15.0,23.0,83,-99.99,,,-99.99,,2013-03-11 15:22:00,
2013-03-11 11:32:00,29.0,24.0,-100.00,NW,310,12.0,25.0,83,-99.99,,,-99.99,,2013-03-11 15:32:00,
2013-03-11 11:42:00,29.0,25.0,-100.00,NW,310,14.0,22.0,84,-99.99,,,-99.99,,2013-03-11 15:42:00,
2013-03-11 11:52:00,29.0,25.0,-100.00,NW,310,14.0,22.0,84,-99.99,,,-99.99,,2013-03-11 15:52:00,
2013-03-11 12:00:00,29.0,25.0,-100.00,NW,315,10.0,16.0,83,-99.99,,,-99.99,,2013-03-11 16:00:00,
2013-03-11 12:12:00,29.0,25.0,-100.00,NW,315,11.0,19.0,83,-99.99,,,-99.99,,2013-03-11 16:12:00,
2013-03-11 12:22:00,29.0,25.0,-100.00,NW,315,11.0,19.0,83,-99.99,,,-99.99,,2013-03-11 16:22:00,
2013-03-11 12:32:00,29.0,25.0,-100.00,NW,315,6.0,11.0,83,-99.99,,,-99.99,,2013-03-11 16:32:00,
2013-03-11 12:43:00,29.0,25.0,-100.00,NW,315,10.0,16.0,83,-99.99,,,-99.99,,2013-03-11 16:43:00,
2013-03-11 12:52:00,29.0,25.0,-100.00,NW,315,10.0,16.0,83,-99.99,,,-99.99,,2013-03-11 16:52:00,
2013-03-11 13:00:00,31.0,25.0,-100.00,NW,310,13.0,20.0,78,-99.99,,,-99.99,,2013-03-11 17:00:00,
2013-03-11 13:35:00,31.0,25.0,-100.00,NW,310,18.0,23.0,78,-99.99,,,-99.99,,2013-03-11 17:35:00,
2013-03-11 13:42:00,31.0,25.0,-100.00,NW,310,13.0,20.0,78,-99.99,,,-99.99,,2013-03-11 17:42:00,
2013-03-11 13:52:00,31.0,25.0,-100.00,NW,310,13.0,20.0,78,-99.99,,,-99.99,,2013-03-11 17:52:00,
2013-03-11 14:12:00,33.0,26.0,-100.00,NW,310,11.0,18.0,75,-99.99,,,-99.99,,2013-03-11 18:12:00,
2013-03-11 14:23:00,33.0,26.0,-100.00,NW,310,11.0,18.0,75,-99.99,,,-99.99,,2013-03-11 18:23:00,
2013-03-11 14:32:00,34.0,27.0,-100.00,NW,310,14.0,22.0,75,-99.99,,,-99.99,,2013-03-11 18:32:00,
2013-03-11 14:42:00,34.0,26.0,-100.00,NW,315,13.0,24.0,73,-99.99,,,-99.99,,2013-03-11 18:42:00,
2013-03-11 14:52:00,34.0,26.0,-100.00,NW,315,13.0,24.0,73,-99.99,,,-99.99,,2013-03-11 18:52:00,
2013-03-11 15:02:00,34.0,26.0,-100.00,NW,310,19.0,25.0,73,-99.99,,,-99.99,,2013-03-11 19:02:00,
2013-03-11 15:12:00,34.0,27.0,-100.00,NW,315,16.0,26.0,74,-99.99,,,-99.99,,2013-03-11 19:12:00,
2013-03-11 15:22:00,34.0,27.0,-100.00,NW,315,16.0,26.0,74,-99.99,,,-99.99,,2013-03-11 19:22:00,
2013-03-11 15:33:00,35.0,26.0,-100.00,NW,310,16.0,28.0,71,-99.99,,,-99.99,,2013-03-11 19:33:00,
2013-03-11 15:42:00,35.0,26.0,-100.00,NW,315,16.0,26.0,71,-99.99,,,-99.99,,2013-03-11 19:42:00,
2013-03-11 15:52:00,35.0,26.0,-100.00,NW,315,16.0,26.0,71,-99.99,,,-99.99,,2013-03-11 19:52:00,
2013-03-11 16:02:00,35.0,26.0,-100.00,NW,310,20.0,27.0,69,-99.99,,,-99.99,,2013-03-11 20:02:00,
2013-03-11 16:12:00,36.0,28.0,-100.00,NW,315,12.0,26.0,73,-99.99,,,-99.99,,2013-03-11 20:12:00,
2013-03-11 16:22:00,36.0,28.0,-100.00,NW,315,12.0,26.0,73,-99.99,,,-99.99,,2013-03-11 20:22:00,
2013-03-11 16:32:00,36.0,26.0,-100.00,NW,310,11.0,17.0,68,-99.99,,,-99.99,,2013-03-11 20:32:00,
2013-03-11 16:43:00,35.0,26.0,-100.00,NW,310,13.0,23.0,68,-99.99,,,-99.99,,2013-03-11 20:43:00,
2013-03-11 16:52:00,35.0,26.0,-100.00,NW,310,13.0,23.0,68,-99.99,,,-99.99,,2013-03-11 20:52:00,
2013-03-11 17:00:00,36.0,26.0,-100.00,NW,310,11.0,19.0,68,-99.99,,,-99.99,,2013-03-11 21:00:00,
2013-03-11 17:03:00,36.0,26.0,-100.00,NW,315,12.0,19.0,68,-99.99,,,-99.99,,2013-03-11 21:03:00,
2013-03-11 17:12:00,36.0,26.0,-100.00,NW,315,10.0,19.0,67,-99.99,,,-99.99,,2013-03-11 21:12:00,
2013-03-11 17:22:00,36.0,26.0,-100.00,NW,315,10.0,19.0,67,-99.99,,,-99.99,,2013-03-11 21:22:00,
2013-03-11 17:30:00,37.0,25.0,-100.00,NW,310,13.0,24.0,63,-99.99,,,-99.99,,2013-03-11 21:30:00,
2013-03-11 17:32:00,36.0,26.0,-100.00,NW,310,12.0,20.0,69,-99.99,,,-99.99,,2013-03-11 21:32:00,
2013-03-11 17:43:00,36.0,26.0,-100.00,NW,310,11.0,19.0,68,-99.99,,,-99.99,,2013-03-11 21:43:00,
2013-03-11 17:52:00,36.0,26.0,-100.00,NW,310,11.0,19.0,68,-99.99,,,-99.99,,2013-03-11 21:52:00,
2013-03-11 18:12:00,37.0,25.0,-100.00,NW,310,13.0,24.0,63,-99.99,,,-99.99,,2013-03-11 22:12:00,
2013-03-11 18:22:00,37.0,25.0,-100.00,NW,310,13.0,24.0,63,-99.99,,,-99.99,,2013-03-11 22:22:00,
2013-03-11 18:43:00,39.0,26.0,-100.00,NW,315,10.0,15.0,60,-99.99,,,-99.99,,2013-03-11 22:43:00,
2013-03-11 18:53:00,39.0,26.0,-100.00,NW,315,10.0,15.0,60,-99.99,,,-99.99,,2013-03-11 22:53:00,
2013-03-11 19:00:00,40.0,26.0,-100.00,NW,310,10.0,19.0,56,-99.99,,,-99.99,,2013-03-11 23:00:00,
2013-03-11 19:03:00,38.0,25.0,-100.00,NW,310,9.0,15.0,60,-99.99,,,-99.99,,2013-03-11 23:03:00,
2013-03-11 19:12:00,38.0,25.0,-100.00,NW,310,9.0,19.0,58,-99.99,,,-99.99,,2013-03-11 23:12:00,
2013-03-11 19:22:00,38.0,25.0,-100.00,NW,310,9.0,19.0,58,-99.99,,,-99.99,,2013-03-11 23:22:00,
2013-03-11 19:32:00,40.0,25.0,-100.00,NW,315,10.0,14.0,55,-99.99,,,-99.99,,2013-03-11 23:32:00,
2013-03-11 19:43:00,40.0,26.0,-100.00,NW,310,10.0,19.0,56,-99.99,,,-99.99,,2013-03-11 23:43:00,
2013-03-11 19:52:00,40.0,26.0,-100.00,NW,310,10.0,19.0,56,-99.99,,,-99.99,,2013-03-11 23:52:00,
2013-03-11 20:12:00,39.0,25.0,-100.00,NW,315,7.0,12.0,56,-99.99,,,-99.99,,2013-03-12 00:12:00,
2013-03-11 20:23:00,39.0,25.0,-100.00,NW,315,7.0,12.0,56,-99.99,,,-99.99,,2013-03-12 00:23:00,
2013-03-11 20:33:00,39.0,24.0,-100.00,NW,310,7.0,14.0,56,-99.99,,,-99.99,,2013-03-12 00:33:00,
2013-03-11 20:53:00,38.0,24.0,-100.00,NW,310,5.0,11.0,58,-99.99,,,-99.99,,2013-03-12 00:53:00,
2013-03-11 21:02:00,37.0,25.0,-100.00,NW,315,4.0,9.0,61,-99.99,,,-99.99,,2013-03-12 01:02:00,
2013-03-11 21:12:00,36.0,24.0,-100.00,NW,310,3.0,7.0,62,-99.99,,,-99.99,,2013-03-12 01:12:00,
2013-03-11 21:22:00,36.0,24.0,-100.00,NW,310,3.0,7.0,62,-99.99,,,-99.99,,2013-03-12 01:22:00,
2013-03-11 21:33:00,35.0,24.0,-100.00,NW,315,2.0,5.0,64,-99.99,,,-99.99,,2013-03-12 01:33:00,
2013-03-11 21:42:00,35.0,24.0,-100.00,NW,315,2.0,4.0,64,-99.99,,,-99.99,,2013-03-12 01:42:00,
2013-03-11 21:52:00,35.0,24.0,-100.00,NW,315,2.0,4.0,64,-99.99,,,-99.99,,2013-03-12 01:52:00,
2013-03-11 22:00:00,33.0,25.0,-100.00,NW,320,1.0,2.0,73,-99.99,,,-99.99,,2013-03-12 02:00:00,
2013-03-11 22:02:00,35.0,24.0,-100.00,NW,320,1.0,5.0,65,-99.99,,,-99.99,,2013-03-12 02:02:00,
2013-03-11 22:12:00,35.0,25.0,-100.00,West,280,1.0,4.0,66,-99.99,,,-99.99,,2013-03-12 02:12:00,
2013-03-11 22:22:00,35.0,25.0,-100.00,West,280,1.0,4.0,66,-99.99,,,-99.99,,2013-03-12 02:22:00,
2013-03-11 22:32:00,33.0,26.0,-100.00,NW,310,0.0,4.0,75,-99.99,,,-99.99,,2013-03-12 02:32:00,
2013-03-11 22:42:00,33.0,25.0,-100.00,NW,320,1.0,2.0,73,-99.99,,,-99.99,,2013-03-12 02:42:00,
2013-03-11 22:52:00,33.0,25.0,-100.00,NW,320,1.0,2.0,73,-99.99,,,-99.99,,2013-03-12 02:52:00,
2013-03-11 23:00:00,30.0,25.0,-100.00,NW,320,3.0,5.0,82,-99.99,,,-99.99,,2013-03-12 03:00:00,
2013-03-11 23:12:00,32.0,25.0,-100.00,WNW,295,1.0,5.0,75,-99.99,,,-99.99,,2013-03-12 03:12:00,
2013-03-11 23:22:00,32.0,25.0,-100.00,WNW,295,1.0,5.0,75,-99.99,,,-99.99,,2013-03-12 03:22:00,
2013-03-11 23:32:00,29.0,25.0,-100.00,NW,320,2.0,3.0,82,-99.99,,,-99.99,,2013-03-12 03:32:00,
2013-03-11 23:42:00,30.0,25.0,-100.00,NW,320,3.0,5.0,82,-99.99,,,-99.99,,2013-03-12 03:42:00,
2013-03-11 23:52:00,30.0,25.0,-100.00,NW,320,3.0,5.0,82,-99.99,,,-99.99,,2013-03-12 03:52:00,